createdAt,value
2023-03-01T00:01:42.600Z,11.73
2023-03-01T00:04:09.509Z,11.50
2023-03-01T00:06:36.591Z,12.52
2023-03-01T00:09:03.909Z,11.20
2023-03-01T00:11:34.170Z,11.55
2023-03-01T00:14:03.107Z,13.65
2023-03-01T00:16:35.496Z,13.02
2023-03-01T00:19:03.199Z,11.35
2023-03-01T00:21:30.830Z,12.68
2023-03-01T00:23:58.807Z,11.35
2023-03-01T00:26:29.073Z,11.90
2023-03-01T00:28:58.826Z,11.73
2023-03-01T00:31:31.862Z,12.05
2023-03-01T00:34:04.099Z,13.45
2023-03-01T00:36:36.564Z,11.02
2023-03-01T00:39:10.519Z,12.63
2023-03-01T00:41:37.399Z,11.65
2023-03-01T00:44:04.645Z,13.73
2023-03-01T00:46:32.003Z,14.38
2023-03-01T00:48:59.276Z,13.98
2023-03-01T00:51:29.430Z,12.77
2023-03-01T00:54:01.404Z,11.77
2023-03-01T00:56:29.675Z,12.70
2023-03-01T00:58:57.342Z,12.35
2023-03-01T01:01:32.883Z,10.85
2023-03-01T01:04:12.486Z,13.00
2023-03-01T01:06:47.262Z,11.32
2023-03-01T01:09:18.525Z,13.55
2023-03-01T01:11:51.265Z,13.15
2023-03-01T01:14:19.848Z,12.27
2023-03-01T01:16:47.483Z,11.52
2023-03-01T01:19:15.401Z,12.02
2023-03-01T01:21:45.833Z,11.55
2023-03-01T01:24:13.317Z,11.90
2023-03-01T01:26:40.655Z,9.05
2023-03-01T01:29:08.759Z,12.80
2023-03-01T01:31:39.121Z,11.93
2023-03-01T01:34:13.328Z,12.10
2023-03-01T01:36:40.288Z,10.50
2023-03-01T01:39:08.093Z,11.70
2023-03-01T01:41:34.961Z,11.45
2023-03-01T01:44:28.709Z,12.50
2023-03-01T01:47:22.840Z,11.38
2023-03-01T01:49:57.568Z,12.05
2023-03-01T01:52:38.983Z,10.13
2023-03-01T01:55:26.358Z,11.07
2023-03-01T01:58:00.819Z,10.98
2023-03-01T02:00:31.080Z,11.38
2023-03-01T02:03:20.687Z,11.45
2023-03-01T02:06:14.340Z,9.20
2023-03-01T02:08:46.441Z,13.13
2023-03-01T02:11:15.589Z,11.65
2023-03-01T02:13:43.999Z,10.85
2023-03-01T02:16:16.563Z,11.45
2023-03-01T02:18:45.735Z,10.93
2023-03-01T02:21:59.732Z,11.13
2023-03-01T02:25:05.176Z,12.50
2023-03-01T02:27:50.348Z,11.27
2023-03-01T02:30:19.670Z,13.43
2023-03-01T02:32:48.826Z,11.32
2023-03-01T02:35:20.261Z,11.00
2023-03-01T02:37:49.265Z,13.27
2023-03-01T02:40:19.702Z,12.15
2023-03-01T02:42:59.430Z,11.85
2023-03-01T02:45:28.127Z,11.77
2023-03-01T02:47:57.611Z,11.27
2023-03-01T02:50:30.509Z,11.95
2023-03-01T02:53:26.433Z,12.02
2023-03-01T02:55:53.625Z,10.30
2023-03-01T02:58:20.906Z,11.88
2023-03-01T03:00:50.232Z,12.60
2023-03-01T03:03:21.697Z,10.73
2023-03-01T03:05:49.277Z,12.80
2023-03-01T03:08:24.678Z,11.27
2023-03-01T03:10:51.843Z,12.43
2023-03-01T03:13:19.947Z,12.70
2023-03-01T03:15:46.875Z,12.13
2023-03-01T03:18:18.478Z,11.68
2023-03-01T03:20:46.812Z,12.85
2023-03-01T03:23:14.581Z,11.75
2023-03-01T03:25:41.438Z,11.90
2023-03-01T03:28:11.666Z,13.30
2023-03-01T03:30:42.012Z,12.55
2023-03-01T03:33:13.579Z,12.18
2023-03-01T03:35:49.103Z,12.10
2023-03-01T03:38:22.697Z,12.68
2023-03-01T03:41:04.774Z,11.18
2023-03-01T03:43:36.071Z,11.25
2023-03-01T03:46:06.622Z,11.73
2023-03-01T03:48:44.727Z,12.88
2023-03-01T03:51:16.379Z,12.55
2023-03-01T03:53:45.332Z,11.80
2023-03-01T03:56:13.075Z,12.07
2023-03-01T03:58:40.062Z,12.25
2023-03-01T04:01:07.180Z,11.98
2023-03-01T04:03:35.971Z,13.20
2023-03-01T04:06:05.032Z,13.77
2023-03-01T04:08:32.774Z,12.05
2023-03-01T04:11:24.439Z,11.90
2023-03-01T04:13:55.706Z,12.48
2023-03-01T04:16:24.409Z,13.25
2023-03-01T04:18:51.715Z,13.25
2023-03-01T04:21:18.671Z,12.65
2023-03-01T04:23:45.553Z,11.25
2023-03-01T04:26:12.723Z,11.82
2023-03-01T04:28:46.697Z,12.88
2023-03-01T04:31:19.380Z,11.90
2023-03-01T04:33:56.771Z,12.32
2023-03-01T04:36:29.187Z,12.77
2023-03-01T04:38:57.361Z,12.35
2023-03-01T04:41:26.385Z,10.93
2023-03-01T04:43:53.508Z,11.40
2023-03-01T04:46:22.482Z,12.27
2023-03-01T04:48:50.068Z,13.13
2023-03-01T04:51:17.614Z,11.68
2023-03-01T04:53:45.389Z,13.07
2023-03-01T04:56:14.909Z,13.85
2023-03-01T04:58:42.650Z,14.90
2023-03-01T05:01:16.959Z,13.95
2023-03-01T05:03:50.891Z,11.60
2023-03-01T05:06:21.164Z,12.75
2023-03-01T05:08:48.448Z,12.23
2023-03-01T05:11:15.434Z,13.45
2023-03-01T05:13:43.047Z,12.35
2023-03-01T05:16:12.310Z,12.35
2023-03-01T05:18:41.869Z,11.95
2023-03-01T05:21:18.353Z,12.73
2023-03-01T05:23:47.664Z,12.15
2023-03-01T05:26:33.222Z,13.15
2023-03-01T05:29:00.997Z,13.07
2023-03-01T05:31:28.646Z,14.77
2023-03-01T05:33:55.662Z,13.70
2023-03-01T05:36:22.517Z,12.05
2023-03-01T05:38:49.405Z,12.80
2023-03-01T05:41:17.828Z,14.07
2023-03-01T05:43:45.813Z,14.07
2023-03-01T05:46:14.175Z,13.90
2023-03-01T05:48:41.326Z,12.73
2023-03-01T05:51:08.319Z,13.63
2023-03-01T05:53:35.200Z,14.07
2023-03-01T05:56:05.594Z,12.73
2023-03-01T05:58:32.969Z,14.02
2023-03-01T06:00:59.915Z,12.85
2023-03-01T06:03:26.801Z,14.48
2023-03-01T06:05:59.001Z,11.57
2023-03-01T06:08:28.005Z,12.02
2023-03-01T06:10:54.910Z,12.25
2023-03-01T06:13:23.870Z,12.48
2023-03-01T06:15:50.996Z,13.18
2023-03-01T06:18:17.862Z,14.65
2023-03-01T06:20:44.749Z,15.25
2023-03-01T06:23:11.633Z,14.10
2023-03-01T06:25:38.616Z,14.40
2023-03-01T06:28:05.547Z,12.20
2023-03-01T06:30:32.964Z,14.40
2023-03-01T06:33:02.050Z,13.63
2023-03-01T06:35:31.893Z,13.27
2023-03-01T06:38:02.602Z,13.23
2023-03-01T06:40:32.074Z,13.32
2023-03-01T06:43:00.094Z,14.13
2023-03-01T06:45:27.000Z,14.05
2023-03-01T06:48:01.826Z,15.98
2023-03-01T06:50:28.713Z,14.38
2023-03-01T06:52:59.162Z,14.23
2023-03-01T06:55:26.138Z,13.38
2023-03-01T06:58:02.314Z,16.73
2023-03-01T07:00:30.818Z,15.55
2023-03-01T07:03:02.855Z,12.75
2023-03-01T07:05:31.524Z,12.50
2023-03-01T07:07:58.571Z,14.20
2023-03-01T07:10:25.770Z,15.02
2023-03-01T07:12:59.515Z,14.65
2023-03-01T07:15:29.586Z,14.20
2023-03-01T07:17:57.827Z,13.40
2023-03-01T07:20:26.103Z,13.90
2023-03-01T07:22:59.249Z,16.17
2023-03-01T07:25:26.308Z,14.20
2023-03-01T07:27:55.175Z,15.10
2023-03-01T07:30:23.008Z,16.08
2023-03-01T07:32:50.158Z,14.25
2023-03-01T07:35:17.116Z,14.23
2023-03-01T07:37:44.766Z,13.98
2023-03-01T07:40:13.233Z,15.40
2023-03-01T07:42:40.076Z,16.30
2023-03-01T07:45:08.536Z,14.23
2023-03-01T07:47:36.809Z,16.15
2023-03-01T07:50:05.056Z,14.30
2023-03-01T07:52:32.006Z,16.05
2023-03-01T07:54:58.994Z,14.30
2023-03-01T07:57:26.159Z,14.27
2023-03-01T07:59:53.009Z,14.38
2023-03-01T08:02:19.851Z,15.15
2023-03-01T08:04:46.772Z,15.60
2023-03-01T08:07:13.614Z,14.07
2023-03-01T08:09:40.638Z,14.27
2023-03-01T08:12:07.711Z,15.75
2023-03-01T08:14:34.612Z,14.82
2023-03-01T08:17:03.749Z,16.57
2023-03-01T08:19:31.197Z,14.77
2023-03-01T08:21:59.070Z,15.70
2023-03-01T08:24:26.248Z,16.00
2023-03-01T08:26:53.153Z,15.13
2023-03-01T08:29:20.071Z,14.30
2023-03-01T08:31:48.235Z,14.67
2023-03-01T08:34:18.623Z,17.27
2023-03-01T08:36:47.588Z,15.17
2023-03-01T08:39:19.198Z,13.23
2023-03-01T08:41:48.261Z,16.60
2023-03-01T08:44:21.650Z,14.70
2023-03-01T08:46:50.814Z,16.40
2023-03-01T08:49:20.523Z,13.40
2023-03-01T08:51:48.809Z,15.33
2023-03-01T08:54:21.622Z,16.70
2023-03-01T08:56:50.081Z,15.80
2023-03-01T08:59:19.226Z,15.63
2023-03-01T09:03:38.031Z,14.13
2023-03-01T09:06:08.296Z,16.40
2023-03-01T09:08:42.252Z,16.80
2023-03-01T09:11:14.626Z,16.17
2023-03-01T09:13:44.207Z,16.33
2023-03-01T09:16:15.143Z,14.83
2023-03-01T09:18:42.355Z,15.20
2023-03-01T09:21:15.368Z,14.50
2023-03-01T09:23:47.042Z,14.60
2023-03-01T09:26:24.788Z,15.43
2023-03-01T09:28:56.942Z,13.97
2023-03-01T09:31:26.021Z,13.70
2023-03-01T09:33:55.789Z,16.17
2023-03-01T09:36:26.455Z,16.70
2023-03-01T09:38:54.162Z,15.07
2023-03-01T09:41:48.675Z,14.80
2023-03-01T09:44:46.850Z,14.60
2023-03-01T09:47:24.774Z,13.23
2023-03-01T09:50:21.537Z,15.07
2023-03-01T09:53:00.106Z,13.47
2023-03-01T09:55:43.793Z,13.20
2023-03-01T09:59:16.206Z,15.00
2023-03-01T10:02:12.206Z,13.40
2023-03-01T10:05:08.161Z,15.07
2023-03-01T10:08:14.856Z,14.83
2023-03-01T10:10:49.171Z,14.33
2023-03-01T10:13:43.883Z,14.57
2023-03-01T10:16:23.755Z,14.63
2023-03-01T10:19:02.380Z,13.93
2023-03-01T10:21:32.462Z,14.43
2023-03-01T10:24:15.856Z,14.67
2023-03-01T10:27:15.970Z,14.03
2023-03-01T10:30:12.187Z,12.70
2023-03-01T10:32:39.889Z,14.43
2023-03-01T10:35:29.497Z,15.57
2023-03-01T10:38:14.407Z,15.27
2023-03-01T10:41:06.411Z,14.77
2023-03-01T10:44:36.518Z,14.87
2023-03-01T10:47:03.775Z,14.70
2023-03-01T10:49:30.916Z,14.60
2023-03-01T10:52:19.865Z,15.83
2023-03-01T10:55:02.075Z,13.37
2023-03-01T10:57:42.789Z,14.17
2023-03-01T11:00:26.262Z,14.70
2023-03-01T11:02:59.127Z,15.30
2023-03-01T11:05:29.358Z,15.30
2023-03-01T11:08:00.166Z,14.83
2023-03-01T11:10:31.488Z,14.93
2023-03-01T11:13:20.359Z,15.30
2023-03-01T11:16:10.937Z,15.73
2023-03-01T11:18:47.743Z,16.40
2023-03-01T11:21:17.443Z,14.17
2023-03-01T11:23:47.852Z,15.50
2023-03-01T11:26:18.305Z,14.20
2023-03-01T11:28:56.452Z,14.73
2023-03-01T11:31:27.670Z,15.10
2023-03-01T11:34:18.704Z,12.63
2023-03-01T11:37:02.608Z,14.57
2023-03-01T11:40:05.841Z,12.90
2023-03-01T11:43:03.093Z,12.30
2023-03-01T11:46:30.680Z,13.07
2023-03-01T11:49:33.198Z,14.10
2023-03-01T11:52:42.988Z,11.53
2023-03-01T11:56:03.767Z,14.67
2023-03-01T11:59:03.655Z,13.50
2023-03-01T12:02:05.947Z,12.67
2023-03-01T12:05:06.731Z,12.73
2023-03-01T12:08:12.438Z,12.57
2023-03-01T12:11:28.884Z,13.50
2023-03-01T12:14:26.808Z,15.20
2023-03-01T12:17:37.038Z,13.90
2023-03-01T12:20:21.536Z,14.43
2023-03-01T12:23:24.535Z,14.80
2023-03-01T12:26:07.675Z,14.50
2023-03-01T12:29:17.379Z,13.83
2023-03-01T12:32:22.724Z,14.00
2023-03-01T12:35:46.272Z,12.23
2023-03-01T12:39:19.982Z,13.70
2023-03-01T12:42:14.422Z,14.50
2023-03-01T12:45:18.295Z,13.90
2023-03-01T12:48:40.044Z,14.70
2023-03-01T12:51:23.449Z,13.87
2023-03-01T12:53:55.664Z,13.37
2023-03-01T12:56:38.783Z,14.20
2023-03-01T12:59:50.043Z,14.13
2023-03-01T13:02:41.944Z,14.23
2023-03-01T13:06:01.564Z,13.43
2023-03-01T13:09:03.563Z,13.70
2023-03-01T13:11:30.856Z,13.90
2023-03-01T13:14:25.535Z,13.37
2023-03-01T13:16:56.445Z,12.70
2023-03-01T13:19:37.079Z,13.20
2023-03-01T13:22:32.685Z,13.23
2023-03-01T13:25:19.350Z,12.20
2023-03-01T13:27:48.085Z,12.93
2023-03-01T13:30:42.220Z,13.47
2023-03-01T13:33:24.420Z,12.00
2023-03-01T13:35:51.327Z,12.20
2023-03-01T13:38:59.080Z,13.80
2023-03-01T13:41:58.714Z,13.10
2023-03-01T13:44:33.623Z,12.60
2023-03-01T13:47:08.484Z,13.73
2023-03-01T13:49:58.510Z,14.10
2023-03-01T13:53:03.163Z,14.50
2023-03-01T13:55:56.637Z,14.40
2023-03-01T13:58:47.221Z,12.97
2023-03-01T14:01:37.140Z,14.30
2023-03-01T14:04:24.048Z,13.50
2023-03-01T14:06:51.125Z,13.87
2023-03-01T14:09:29.328Z,14.33
2023-03-01T14:12:22.231Z,13.20
2023-03-01T14:15:02.890Z,14.47
2023-03-01T14:17:50.870Z,13.33
2023-03-01T14:20:33.183Z,13.70
2023-03-01T14:23:12.588Z,14.13
2023-03-01T14:25:50.832Z,13.60
2023-03-01T14:28:27.206Z,14.20
2023-03-01T14:31:00.380Z,13.10
2023-03-01T14:33:35.366Z,12.13
2023-03-01T14:36:11.075Z,14.60
2023-03-01T14:38:48.139Z,12.80
2023-03-01T14:41:25.357Z,13.30
2023-03-01T14:44:01.871Z,12.80
2023-03-01T14:46:45.138Z,11.73
2023-03-01T14:49:26.611Z,12.73
2023-03-01T14:52:05.044Z,12.73
2023-03-01T14:54:46.920Z,12.57
2023-03-01T14:57:26.616Z,13.10
2023-03-01T15:00:01.209Z,14.10
2023-03-01T15:02:31.199Z,13.40
2023-03-01T15:05:08.975Z,13.10
2023-03-01T15:07:43.343Z,14.87
2023-03-01T15:10:27.993Z,13.73
2023-03-01T15:12:55.858Z,13.60
2023-03-01T15:15:47.411Z,13.27
2023-03-01T15:18:26.765Z,14.33
2023-03-01T15:20:54.951Z,14.10
2023-03-01T15:23:28.971Z,14.60
2023-03-01T15:25:58.223Z,13.80
2023-03-01T15:28:43.725Z,15.07
2023-03-01T15:31:35.969Z,14.07
2023-03-01T15:34:37.641Z,13.80
2023-03-01T15:37:46.117Z,12.50
2023-03-01T15:40:21.463Z,15.87
2023-03-01T15:42:48.421Z,15.23
2023-03-01T15:45:18.008Z,14.27
2023-03-01T15:47:53.760Z,13.47
2023-03-01T15:50:34.954Z,13.10
2023-03-01T15:53:09.049Z,14.17
2023-03-01T15:55:35.971Z,13.50
2023-03-01T15:58:15.336Z,12.70
2023-03-01T16:00:58.154Z,15.90
2023-03-01T16:03:27.405Z,13.80
2023-03-01T16:05:54.564Z,15.00
2023-03-01T16:08:21.574Z,12.37
2023-03-01T16:10:50.777Z,14.40
2023-03-01T16:13:18.561Z,14.47
2023-03-01T16:15:46.142Z,13.50
2023-03-01T16:18:13.251Z,13.80
2023-03-01T16:20:40.959Z,13.97
2023-03-01T16:23:11.848Z,12.27
2023-03-01T16:25:38.953Z,13.10
2023-03-01T16:28:10.140Z,13.17
2023-03-01T16:30:40.302Z,13.97
2023-03-01T16:33:24.383Z,13.20
2023-03-01T16:35:56.234Z,14.23
2023-03-01T16:38:23.274Z,14.80
2023-03-01T16:40:52.533Z,13.77
2023-03-01T16:43:19.742Z,14.17
2023-03-01T16:45:47.344Z,15.97
2023-03-01T16:48:15.331Z,14.20
2023-03-01T16:50:42.401Z,12.90
2023-03-01T16:53:09.565Z,14.17
2023-03-01T16:55:36.736Z,13.60
2023-03-01T16:58:05.010Z,12.57
2023-03-01T17:00:31.990Z,14.97
2023-03-01T17:02:59.132Z,12.83
2023-03-01T17:05:26.762Z,13.93
2023-03-01T17:07:56.423Z,14.30
2023-03-01T17:10:23.352Z,14.07
2023-03-01T17:12:51.279Z,14.50
2023-03-01T17:15:18.264Z,13.50
2023-03-01T17:17:45.238Z,13.33
2023-03-01T17:20:13.085Z,13.93
2023-03-01T17:22:39.996Z,14.73
2023-03-01T17:25:10.956Z,13.90
2023-03-01T17:27:39.612Z,14.60
2023-03-01T17:30:13.771Z,12.43
2023-03-01T17:32:42.204Z,12.87
2023-03-01T17:35:11.856Z,14.20
2023-03-01T17:37:40.285Z,12.70
2023-03-01T17:40:08.495Z,14.03
2023-03-01T17:42:35.499Z,13.57
2023-03-01T17:45:02.380Z,13.03
2023-03-01T17:47:29.312Z,14.27
2023-03-01T17:49:56.236Z,13.90
2023-03-01T17:52:23.692Z,14.35
2023-03-01T17:54:51.476Z,14.47
2023-03-01T17:57:18.480Z,13.77
2023-03-01T17:59:45.338Z,12.90
2023-03-01T18:02:15.339Z,14.60
2023-03-01T18:04:42.256Z,15.40
2023-03-01T18:07:09.131Z,14.27
2023-03-01T18:09:36.022Z,14.37
2023-03-01T18:12:02.933Z,14.20
2023-03-01T18:14:33.769Z,14.73
2023-03-01T18:17:06.542Z,15.27
2023-03-01T18:19:33.590Z,15.30
2023-03-01T18:22:00.498Z,13.97
2023-03-01T18:24:27.416Z,14.70
2023-03-01T18:26:54.360Z,14.63
2023-03-01T18:29:21.244Z,15.60
2023-03-01T18:31:48.370Z,16.10
2023-03-01T18:34:15.528Z,15.13
2023-03-01T18:36:47.901Z,19.95
2023-03-01T18:39:24.752Z,14.40
2023-03-01T18:41:51.852Z,14.45
2023-03-01T18:44:18.841Z,15.52
2023-03-01T18:46:48.917Z,16.25
2023-03-01T18:49:16.268Z,15.20
2023-03-01T18:51:43.793Z,16.25
2023-03-01T18:54:12.800Z,17.30
2023-03-01T18:56:40.171Z,16.98
2023-03-01T18:59:07.486Z,15.45
2023-03-01T19:01:37.298Z,15.95
2023-03-01T19:04:05.207Z,15.00
2023-03-01T19:06:35.220Z,15.00
2023-03-01T19:09:03.148Z,14.48
2023-03-01T19:11:33.091Z,13.82
2023-03-01T19:14:02.420Z,13.80
2023-03-01T19:16:34.607Z,15.02
2023-03-01T19:19:08.226Z,14.55
2023-03-01T19:21:35.663Z,14.95
2023-03-01T19:24:02.799Z,15.50
2023-03-01T19:26:31.690Z,17.30
2023-03-01T19:28:59.431Z,25.60
2023-03-01T19:31:30.867Z,20.48
2023-03-01T19:34:11.579Z,14.75
2023-03-01T19:36:43.961Z,14.95
2023-03-01T19:39:13.917Z,15.10
2023-03-01T19:41:42.357Z,15.38
2023-03-01T19:44:10.025Z,16.95
2023-03-01T19:46:37.540Z,16.05
2023-03-01T19:49:05.037Z,15.80
2023-03-01T19:51:38.805Z,22.50
2023-03-01T19:54:07.046Z,14.57
2023-03-01T19:56:35.645Z,17.17
2023-03-01T19:59:04.379Z,16.23
2023-03-01T20:01:34.056Z,16.83
2023-03-01T20:04:03.434Z,15.23
2023-03-01T20:06:31.190Z,17.70
2023-03-01T20:09:00.665Z,17.88
2023-03-01T20:11:29.195Z,19.20
2023-03-01T20:13:56.500Z,24.70
2023-03-01T20:16:24.321Z,15.52
2023-03-01T20:18:51.183Z,17.35
2023-03-01T20:21:24.860Z,17.83
2023-03-01T20:23:53.617Z,18.05
2023-03-01T20:26:22.957Z,16.30
2023-03-01T20:28:54.896Z,20.25
2023-03-01T20:31:29.075Z,16.23
2023-03-01T20:33:59.452Z,16.23
2023-03-01T20:36:28.239Z,17.48
2023-03-01T20:38:56.344Z,16.33
2023-03-01T20:41:26.865Z,17.88
2023-03-01T20:43:56.309Z,16.92
2023-03-01T20:46:26.583Z,15.65
2023-03-01T20:48:54.237Z,15.52
2023-03-01T20:51:22.285Z,15.23
2023-03-01T20:53:49.586Z,16.55
2023-03-01T20:56:19.709Z,17.70
2023-03-01T20:58:47.103Z,17.90
2023-03-01T21:01:21.039Z,16.58
2023-03-01T21:03:48.298Z,17.27
2023-03-01T21:06:15.265Z,16.30
2023-03-01T21:08:42.291Z,17.55
2023-03-01T21:11:10.086Z,18.17
2023-03-01T21:13:36.991Z,15.60
2023-03-01T21:16:14.038Z,16.73
2023-03-01T21:18:42.529Z,15.63
2023-03-01T21:21:14.123Z,15.13
2023-03-01T21:23:44.201Z,16.25
2023-03-01T21:26:23.808Z,14.82
2023-03-01T21:28:58.147Z,14.95
2023-03-01T21:31:34.656Z,14.52
2023-03-01T21:34:06.705Z,14.20
2023-03-01T21:36:35.938Z,15.60
2023-03-01T21:39:06.139Z,16.58
2023-03-01T21:41:37.358Z,16.38
2023-03-01T21:44:07.107Z,14.50
2023-03-01T21:46:39.049Z,16.42
2023-03-01T21:49:09.981Z,13.63
2023-03-01T21:51:37.383Z,16.13
2023-03-01T21:54:05.547Z,17.00
2023-03-01T21:56:38.595Z,16.17
2023-03-01T21:59:09.306Z,14.35
2023-03-01T22:01:36.409Z,15.10
2023-03-01T22:04:03.575Z,16.08
2023-03-01T22:06:45.206Z,16.35
2023-03-01T22:09:21.601Z,14.90
2023-03-01T22:12:01.898Z,13.30
2023-03-01T22:14:32.619Z,16.25
2023-03-01T22:16:59.667Z,14.15
2023-03-01T22:19:28.527Z,13.70
2023-03-01T22:21:55.422Z,16.65
2023-03-01T22:24:25.364Z,14.98
2023-03-01T22:26:54.895Z,15.73
2023-03-01T22:29:29.268Z,14.65
2023-03-01T22:31:57.959Z,14.77
2023-03-01T22:34:26.238Z,15.65
2023-03-01T22:36:53.266Z,15.52
2023-03-01T22:39:21.487Z,13.95
2023-03-01T22:41:50.142Z,14.55
2023-03-01T22:44:23.390Z,13.68
2023-03-01T22:46:52.159Z,13.27
2023-03-01T22:49:21.226Z,13.60
2023-03-01T22:51:49.071Z,13.35
2023-03-01T22:54:19.308Z,14.57
2023-03-01T22:56:47.045Z,14.73
2023-03-01T22:59:18.953Z,13.25
2023-03-01T23:01:47.926Z,13.70
2023-03-01T23:04:17.396Z,13.07
2023-03-01T23:06:53.549Z,12.65
2023-03-01T23:09:34.279Z,15.68
2023-03-01T23:12:07.312Z,15.45
2023-03-01T23:14:35.132Z,12.52
2023-03-01T23:17:03.538Z,12.98
2023-03-01T23:19:30.983Z,15.93
2023-03-01T23:21:58.044Z,14.50
2023-03-01T23:24:31.132Z,13.77
2023-03-01T23:27:02.047Z,12.30
2023-03-01T23:29:29.562Z,13.60
2023-03-01T23:31:57.928Z,12.98
2023-03-01T23:34:27.358Z,13.00
2023-03-01T23:36:55.705Z,15.75
2023-03-01T23:39:22.883Z,15.55
2023-03-01T23:41:50.242Z,13.35
2023-03-01T23:44:20.846Z,13.27
2023-03-01T23:46:50.110Z,14.57
2023-03-01T23:49:21.909Z,13.65
2023-03-01T23:51:49.684Z,11.90
2023-03-01T23:54:21.890Z,13.02
2023-03-01T23:56:48.874Z,13.63
2023-03-01T23:59:22.017Z,14.10
